sensor_id;sensor_type;location;lat;lon;timestamp;temperature;humidity
72772;SHT30;60894;42.544;1.516;2023-06-19T00:00:31;15.61;76.85
72772;SHT30;60894;42.544;1.516;2023-06-19T00:02:58;15.61;76.32
72772;SHT30;60894;42.544;1.516;2023-06-19T00:05:25;15.73;75.64
72772;SHT30;60894;42.544;1.516;2023-06-19T00:07:53;15.66;76.11
72772;SHT30;60894;42.544;1.516;2023-06-19T00:10:20;15.57;76.28
72772;SHT30;60894;42.544;1.516;2023-06-19T00:12:47;15.54;76.49
72772;SHT30;60894;42.544;1.516;2023-06-19T00:15:14;15.70;76.31
72772;SHT30;60894;42.544;1.516;2023-06-19T00:17:41;15.70;76.19
72772;SHT30;60894;42.544;1.516;2023-06-19T00:20:09;15.63;76.29
72772;SHT30;60894;42.544;1.516;2023-06-19T00:22:39;15.50;76.55
72772;SHT30;60894;42.544;1.516;2023-06-19T00:25:08;15.68;76.46
72772;SHT30;60894;42.544;1.516;2023-06-19T00:27:35;15.91;75.52
72772;SHT30;60894;42.544;1.516;2023-06-19T00:30:02;15.86;75.73
72772;SHT30;60894;42.544;1.516;2023-06-19T00:32:29;15.67;76.22
72772;SHT30;60894;42.544;1.516;2023-06-19T00:34:56;15.74;76.12
72772;SHT30;60894;42.544;1.516;2023-06-19T00:37:27;15.40;76.93
72772;SHT30;60894;42.544;1.516;2023-06-19T00:39:57;15.57;77.00
72772;SHT30;60894;42.544;1.516;2023-06-19T00:42:28;15.70;76.65
72772;SHT30;60894;42.544;1.516;2023-06-19T00:44:55;15.49;76.89
72772;SHT30;60894;42.544;1.516;2023-06-19T00:47:22;15.36;77.25
72772;SHT30;60894;42.544;1.516;2023-06-19T00:49:51;15.37;77.31
72772;SHT30;60894;42.544;1.516;2023-06-19T00:52:18;15.33;77.73
72772;SHT30;60894;42.544;1.516;2023-06-19T00:54:45;15.16;78.19
72772;SHT30;60894;42.544;1.516;2023-06-19T00:57:12;15.10;78.47
72772;SHT30;60894;42.544;1.516;2023-06-19T00:59:40;14.96;78.39
72772;SHT30;60894;42.544;1.516;2023-06-19T01:02:10;15.16;78.05
72772;SHT30;60894;42.544;1.516;2023-06-19T01:04:37;15.06;77.96
72772;SHT30;60894;42.544;1.516;2023-06-19T01:07:08;15.00;78.28
72772;SHT30;60894;42.544;1.516;2023-06-19T01:09:43;14.99;78.57
72772;SHT30;60894;42.544;1.516;2023-06-19T01:12:15;15.18;78.00
72772;SHT30;60894;42.544;1.516;2023-06-19T01:14:52;15.19;77.69
72772;SHT30;60894;42.544;1.516;2023-06-19T01:17:20;15.08;78.09
72772;SHT30;60894;42.544;1.516;2023-06-19T01:19:48;15.12;78.08
72772;SHT30;60894;42.544;1.516;2023-06-19T01:22:25;15.08;78.17
72772;SHT30;60894;42.544;1.516;2023-06-19T01:24:51;15.16;78.08
72772;SHT30;60894;42.544;1.516;2023-06-19T01:27:18;14.92;78.63
72772;SHT30;60894;42.544;1.516;2023-06-19T01:29:46;15.16;78.23
72772;SHT30;60894;42.544;1.516;2023-06-19T01:32:16;15.37;77.63
72772;SHT30;60894;42.544;1.516;2023-06-19T01:34:46;15.42;77.13
72772;SHT30;60894;42.544;1.516;2023-06-19T01:37:14;15.46;76.86
72772;SHT30;60894;42.544;1.516;2023-06-19T01:39:44;15.37;76.82
72772;SHT30;60894;42.544;1.516;2023-06-19T01:42:12;15.32;76.54
72772;SHT30;60894;42.544;1.516;2023-06-19T01:44:40;15.29;76.48
72772;SHT30;60894;42.544;1.516;2023-06-19T01:47:09;15.08;77.29
72772;SHT30;60894;42.544;1.516;2023-06-19T01:49:36;15.19;77.18
72772;SHT30;60894;42.544;1.516;2023-06-19T01:52:04;15.10;77.76
72772;SHT30;60894;42.544;1.516;2023-06-19T01:54:32;14.93;77.92
72772;SHT30;60894;42.544;1.516;2023-06-19T01:57:00;15.09;77.72
72772;SHT30;60894;42.544;1.516;2023-06-19T01:59:27;15.00;77.99
72772;SHT30;60894;42.544;1.516;2023-06-19T02:01:54;15.00;77.51
72772;SHT30;60894;42.544;1.516;2023-06-19T02:04:21;14.78;78.03
72772;SHT30;60894;42.544;1.516;2023-06-19T02:06:48;14.63;78.82
72772;SHT30;60894;42.544;1.516;2023-06-19T02:09:15;14.64;79.00
72772;SHT30;60894;42.544;1.516;2023-06-19T02:11:42;14.58;79.33
72772;SHT30;60894;42.544;1.516;2023-06-19T02:14:10;14.55;79.31
72772;SHT30;60894;42.544;1.516;2023-06-19T02:16:37;14.41;79.66
72772;SHT30;60894;42.544;1.516;2023-06-19T02:19:06;14.34;79.83
72772;SHT30;60894;42.544;1.516;2023-06-19T02:21:33;14.55;79.65
72772;SHT30;60894;42.544;1.516;2023-06-19T02:24:00;14.55;79.40
72772;SHT30;60894;42.544;1.516;2023-06-19T02:26:27;14.65;79.26
72772;SHT30;60894;42.544;1.516;2023-06-19T02:28:55;14.64;79.02
72772;SHT30;60894;42.544;1.516;2023-06-19T02:31:23;14.48;79.22
72772;SHT30;60894;42.544;1.516;2023-06-19T02:33:51;14.44;79.17
72772;SHT30;60894;42.544;1.516;2023-06-19T02:36:17;14.57;79.08
72772;SHT30;60894;42.544;1.516;2023-06-19T02:38:45;14.60;78.81
72772;SHT30;60894;42.544;1.516;2023-06-19T02:41:13;14.58;78.65
72772;SHT30;60894;42.544;1.516;2023-06-19T02:43:40;14.52;78.66
72772;SHT30;60894;42.544;1.516;2023-06-19T02:46:07;14.68;78.55
72772;SHT30;60894;42.544;1.516;2023-06-19T02:48:35;14.55;77.81
72772;SHT30;60894;42.544;1.516;2023-06-19T02:51:02;14.69;78.17
72772;SHT30;60894;42.544;1.516;2023-06-19T02:53:29;14.75;78.22
72772;SHT30;60894;42.544;1.516;2023-06-19T02:55:56;14.85;78.12
72772;SHT30;60894;42.544;1.516;2023-06-19T02:58:23;14.78;77.48
72772;SHT30;60894;42.544;1.516;2023-06-19T03:00:50;14.77;77.38
72772;SHT30;60894;42.544;1.516;2023-06-19T03:03:17;14.54;77.73
72772;SHT30;60894;42.544;1.516;2023-06-19T03:05:46;14.45;78.08
72772;SHT30;60894;42.544;1.516;2023-06-19T03:08:12;14.45;77.75
72772;SHT30;60894;42.544;1.516;2023-06-19T03:10:39;14.17;78.42
72772;SHT30;60894;42.544;1.516;2023-06-19T03:13:06;14.06;78.84
72772;SHT30;60894;42.544;1.516;2023-06-19T03:15:33;14.03;79.03
72772;SHT30;60894;42.544;1.516;2023-06-19T03:18:00;14.13;78.50
72772;SHT30;60894;42.544;1.516;2023-06-19T03:20:30;14.07;78.61
72772;SHT30;60894;42.544;1.516;2023-06-19T03:22:58;14.03;78.38
72772;SHT30;60894;42.544;1.516;2023-06-19T03:25:25;13.77;79.52
72772;SHT30;60894;42.544;1.516;2023-06-19T03:27:52;13.95;79.00
72772;SHT30;60894;42.544;1.516;2023-06-19T03:30:19;13.97;78.94
72772;SHT30;60894;42.544;1.516;2023-06-19T03:32:46;13.97;78.81
72772;SHT30;60894;42.544;1.516;2023-06-19T03:35:13;13.80;79.34
72772;SHT30;60894;42.544;1.516;2023-06-19T03:37:40;13.87;79.05
72772;SHT30;60894;42.544;1.516;2023-06-19T03:40:09;14.02;78.46
72772;SHT30;60894;42.544;1.516;2023-06-19T03:42:39;13.91;78.63
72772;SHT30;60894;42.544;1.516;2023-06-19T03:45:07;13.85;78.67
72772;SHT30;60894;42.544;1.516;2023-06-19T03:47:34;13.76;78.80
72772;SHT30;60894;42.544;1.516;2023-06-19T03:50:00;13.72;79.65
72772;SHT30;60894;42.544;1.516;2023-06-19T03:52:27;13.76;79.33
72772;SHT30;60894;42.544;1.516;2023-06-19T03:54:54;13.82;78.83
72772;SHT30;60894;42.544;1.516;2023-06-19T03:57:23;13.79;78.75
72772;SHT30;60894;42.544;1.516;2023-06-19T03:59:49;13.97;78.11
72772;SHT30;60894;42.544;1.516;2023-06-19T04:02:19;13.95;77.36
72772;SHT30;60894;42.544;1.516;2023-06-19T04:04:46;13.75;78.26
72772;SHT30;60894;42.544;1.516;2023-06-19T04:07:13;13.75;78.28
72772;SHT30;60894;42.544;1.516;2023-06-19T04:09:39;13.67;78.49
72772;SHT30;60894;42.544;1.516;2023-06-19T04:12:07;13.67;78.62
72772;SHT30;60894;42.544;1.516;2023-06-19T04:14:36;13.77;78.01
72772;SHT30;60894;42.544;1.516;2023-06-19T04:17:03;13.52;78.60
72772;SHT30;60894;42.544;1.516;2023-06-19T04:19:29;13.51;78.85
72772;SHT30;60894;42.544;1.516;2023-06-19T04:21:56;13.65;79.31
72772;SHT30;60894;42.544;1.516;2023-06-19T04:24:23;13.72;79.27
72772;SHT30;60894;42.544;1.516;2023-06-19T04:26:50;13.90;79.41
72772;SHT30;60894;42.544;1.516;2023-06-19T04:29:18;13.79;77.58
72772;SHT30;60894;42.544;1.516;2023-06-19T04:31:46;13.70;77.33
72772;SHT30;60894;42.544;1.516;2023-06-19T04:34:15;13.75;78.29
72772;SHT30;60894;42.544;1.516;2023-06-19T04:36:42;13.72;78.17
72772;SHT30;60894;42.544;1.516;2023-06-19T04:39:09;13.55;78.19
72772;SHT30;60894;42.544;1.516;2023-06-19T04:41:36;13.58;78.28
72772;SHT30;60894;42.544;1.516;2023-06-19T04:44:04;13.58;77.97
72772;SHT30;60894;42.544;1.516;2023-06-19T04:46:31;13.56;77.57
72772;SHT30;60894;42.544;1.516;2023-06-19T04:49:00;13.62;77.40
72772;SHT30;60894;42.544;1.516;2023-06-19T04:51:29;13.49;77.86
72772;SHT30;60894;42.544;1.516;2023-06-19T04:53:57;13.36;78.24
72772;SHT30;60894;42.544;1.516;2023-06-19T04:56:24;13.42;78.53
72772;SHT30;60894;42.544;1.516;2023-06-19T04:58:50;13.45;78.26
72772;SHT30;60894;42.544;1.516;2023-06-19T05:01:20;13.45;78.31
72772;SHT30;60894;42.544;1.516;2023-06-19T05:03:53;13.36;78.08
72772;SHT30;60894;42.544;1.516;2023-06-19T05:06:22;13.48;78.09
72772;SHT30;60894;42.544;1.516;2023-06-19T05:08:49;13.49;77.64
72772;SHT30;60894;42.544;1.516;2023-06-19T05:11:16;13.72;77.71
72772;SHT30;60894;42.544;1.516;2023-06-19T05:13:42;13.86;76.67
72772;SHT30;60894;42.544;1.516;2023-06-19T05:16:09;13.69;76.89
72772;SHT30;60894;42.544;1.516;2023-06-19T05:18:37;13.69;77.27
72772;SHT30;60894;42.544;1.516;2023-06-19T05:21:04;13.61;76.41
72772;SHT30;60894;42.544;1.516;2023-06-19T05:23:32;13.55;76.52
72772;SHT30;60894;42.544;1.516;2023-06-19T05:25:59;13.55;77.81
72772;SHT30;60894;42.544;1.516;2023-06-19T05:28:26;13.70;77.76
72772;SHT30;60894;42.544;1.516;2023-06-19T05:30:52;13.65;76.90
72772;SHT30;60894;42.544;1.516;2023-06-19T05:33:20;13.58;77.06
72772;SHT30;60894;42.544;1.516;2023-06-19T05:35:49;13.48;76.16
72772;SHT30;60894;42.544;1.516;2023-06-19T05:38:17;13.41;77.31
72772;SHT30;60894;42.544;1.516;2023-06-19T05:40:46;13.56;77.22
72772;SHT30;60894;42.544;1.516;2023-06-19T05:43:13;13.46;77.06
72772;SHT30;60894;42.544;1.516;2023-06-19T05:45:40;13.49;77.52
72772;SHT30;60894;42.544;1.516;2023-06-19T05:48:07;13.55;77.71
72772;SHT30;60894;42.544;1.516;2023-06-19T05:50:34;13.52;77.35
72772;SHT30;60894;42.544;1.516;2023-06-19T05:53:01;13.61;77.35
72772;SHT30;60894;42.544;1.516;2023-06-19T05:55:27;13.82;76.11
72772;SHT30;60894;42.544;1.516;2023-06-19T05:57:56;13.83;75.86
72772;SHT30;60894;42.544;1.516;2023-06-19T06:00:23;13.82;75.58
72772;SHT30;60894;42.544;1.516;2023-06-19T06:02:50;13.80;75.38
72772;SHT30;60894;42.544;1.516;2023-06-19T06:05:19;13.86;75.54
72772;SHT30;60894;42.544;1.516;2023-06-19T06:07:46;13.87;75.32
72772;SHT30;60894;42.544;1.516;2023-06-19T06:10:13;14.02;74.96
72772;SHT30;60894;42.544;1.516;2023-06-19T06:12:42;14.06;74.59
72772;SHT30;60894;42.544;1.516;2023-06-19T06:15:10;14.10;74.31
72772;SHT30;60894;42.544;1.516;2023-06-19T06:17:37;14.21;74.29
72772;SHT30;60894;42.544;1.516;2023-06-19T06:20:05;14.40;75.06
72772;SHT30;60894;42.544;1.516;2023-06-19T06:22:36;14.60;74.69
72772;SHT30;60894;42.544;1.516;2023-06-19T06:25:04;14.75;73.77
72772;SHT30;60894;42.544;1.516;2023-06-19T06:27:31;14.77;72.06
72772;SHT30;60894;42.544;1.516;2023-06-19T06:29:58;14.98;72.61
72772;SHT30;60894;42.544;1.516;2023-06-19T06:32:27;15.06;70.37
72772;SHT30;60894;42.544;1.516;2023-06-19T06:34:56;15.15;69.78
72772;SHT30;60894;42.544;1.516;2023-06-19T06:37:24;15.08;71.03
72772;SHT30;60894;42.544;1.516;2023-06-19T06:39:51;15.05;71.49
72772;SHT30;60894;42.544;1.516;2023-06-19T06:42:18;15.16;71.31
72772;SHT30;60894;42.544;1.516;2023-06-19T06:44:45;15.22;72.98
72772;SHT30;60894;42.544;1.516;2023-06-19T06:47:12;15.35;73.35
72772;SHT30;60894;42.544;1.516;2023-06-19T06:49:41;15.46;73.56
72772;SHT30;60894;42.544;1.516;2023-06-19T06:52:08;15.29;71.49
72772;SHT30;60894;42.544;1.516;2023-06-19T06:54:35;15.32;72.06
72772;SHT30;60894;42.544;1.516;2023-06-19T06:57:02;15.39;73.33
72772;SHT30;60894;42.544;1.516;2023-06-19T06:59:30;15.32;73.50
72772;SHT30;60894;42.544;1.516;2023-06-19T07:01:57;15.47;73.99
72772;SHT30;60894;42.544;1.516;2023-06-19T07:04:24;15.56;73.60
72772;SHT30;60894;42.544;1.516;2023-06-19T07:06:53;15.42;72.40
72772;SHT30;60894;42.544;1.516;2023-06-19T07:09:20;15.27;71.99
72772;SHT30;60894;42.544;1.516;2023-06-19T07:11:47;15.10;71.88
72772;SHT30;60894;42.544;1.516;2023-06-19T07:14:14;15.08;73.13
72772;SHT30;60894;42.544;1.516;2023-06-19T07:16:43;15.10;74.61
72772;SHT30;60894;42.544;1.516;2023-06-19T07:19:10;15.37;74.36
72772;SHT30;60894;42.544;1.516;2023-06-19T07:21:37;15.46;74.41
72772;SHT30;60894;42.544;1.516;2023-06-19T07:24:06;15.56;74.22
72772;SHT30;60894;42.544;1.516;2023-06-19T07:26:33;15.64;73.78
72772;SHT30;60894;42.544;1.516;2023-06-19T07:29:01;15.61;72.42
72772;SHT30;60894;42.544;1.516;2023-06-19T07:31:27;15.36;71.42
72772;SHT30;60894;42.544;1.516;2023-06-19T07:33:54;15.37;70.99
72772;SHT30;60894;42.544;1.516;2023-06-19T07:36:21;15.47;72.24
72772;SHT30;60894;42.544;1.516;2023-06-19T07:38:48;15.77;72.49
72772;SHT30;60894;42.544;1.516;2023-06-19T07:41:17;15.94;72.09
72772;SHT30;60894;42.544;1.516;2023-06-19T07:43:44;16.09;71.95
72772;SHT30;60894;42.544;1.516;2023-06-19T07:46:10;16.19;70.39
72772;SHT30;60894;42.544;1.516;2023-06-19T07:48:37;16.14;69.91
72772;SHT30;60894;42.544;1.516;2023-06-19T07:51:04;16.05;69.26
72772;SHT30;60894;42.544;1.516;2023-06-19T07:53:31;16.00;69.94
72772;SHT30;60894;42.544;1.516;2023-06-19T07:55:58;16.14;71.18
72772;SHT30;60894;42.544;1.516;2023-06-19T07:58:26;16.48;71.34
72772;SHT30;60894;42.544;1.516;2023-06-19T08:00:53;16.60;69.24
72772;SHT30;60894;42.544;1.516;2023-06-19T08:03:20;16.76;68.64
72772;SHT30;60894;42.544;1.516;2023-06-19T08:05:49;16.72;66.91
72772;SHT30;60894;42.544;1.516;2023-06-19T08:08:16;16.69;65.02
72772;SHT30;60894;42.544;1.516;2023-06-19T08:10:43;16.59;65.73
72772;SHT30;60894;42.544;1.516;2023-06-19T08:13:10;16.68;64.75
72772;SHT30;60894;42.544;1.516;2023-06-19T08:15:39;16.80;67.14
72772;SHT30;60894;42.544;1.516;2023-06-19T08:18:06;16.93;68.08
72772;SHT30;60894;42.544;1.516;2023-06-19T08:20:33;17.00;66.58
72772;SHT30;60894;42.544;1.516;2023-06-19T08:23:00;17.26;68.46
72772;SHT30;60894;42.544;1.516;2023-06-19T08:25:26;17.42;65.85
72772;SHT30;60894;42.544;1.516;2023-06-19T08:27:53;17.64;66.94
72772;SHT30;60894;42.544;1.516;2023-06-19T08:30:20;17.75;67.26
72772;SHT30;60894;42.544;1.516;2023-06-19T08:32:49;17.68;67.38
72772;SHT30;60894;42.544;1.516;2023-06-19T08:35:16;17.59;65.96
72772;SHT30;60894;42.544;1.516;2023-06-19T08:37:43;17.51;64.60
72772;SHT30;60894;42.544;1.516;2023-06-19T08:40:12;17.75;66.88
72772;SHT30;60894;42.544;1.516;2023-06-19T08:42:39;17.83;63.64
72772;SHT30;60894;42.544;1.516;2023-06-19T08:45:09;18.02;63.47
72772;SHT30;60894;42.544;1.516;2023-06-19T08:47:36;18.08;64.18
72772;SHT30;60894;42.544;1.516;2023-06-19T08:50:05;18.17;63.92
72772;SHT30;60894;42.544;1.516;2023-06-19T08:52:32;18.50;63.75
72772;SHT30;60894;42.544;1.516;2023-06-19T08:54:59;18.71;62.91
72772;SHT30;60894;42.544;1.516;2023-06-19T08:57:36;19.01;63.71
72772;SHT30;60894;42.544;1.516;2023-06-19T09:00:05;19.11;61.76
72772;SHT30;60894;42.544;1.516;2023-06-19T09:02:37;19.33;63.04
72772;SHT30;60894;42.544;1.516;2023-06-19T09:05:23;19.52;60.12
72772;SHT30;60894;42.544;1.516;2023-06-19T09:08:00;19.43;59.19
72772;SHT30;60894;42.544;1.516;2023-06-19T09:10:27;19.31;57.02
72772;SHT30;60894;42.544;1.516;2023-06-19T09:12:58;19.12;55.21
72772;SHT30;60894;42.544;1.516;2023-06-19T09:15:28;19.05;56.01
72772;SHT30;60894;42.544;1.516;2023-06-19T09:18:03;19.14;54.63
72772;SHT30;60894;42.544;1.516;2023-06-19T09:20:34;19.11;55.23
72772;SHT30;60894;42.544;1.516;2023-06-19T09:23:02;19.22;55.63
72772;SHT30;60894;42.544;1.516;2023-06-19T09:25:29;19.43;56.99
72772;SHT30;60894;42.544;1.516;2023-06-19T09:27:57;19.60;57.85
72772;SHT30;60894;42.544;1.516;2023-06-19T09:30:24;19.62;57.42
72772;SHT30;60894;42.544;1.516;2023-06-19T09:32:51;19.62;57.83
72772;SHT30;60894;42.544;1.516;2023-06-19T09:35:18;19.59;58.24
72772;SHT30;60894;42.544;1.516;2023-06-19T09:37:49;19.59;59.56
72772;SHT30;60894;42.544;1.516;2023-06-19T09:40:18;19.56;59.16
72772;SHT30;60894;42.544;1.516;2023-06-19T09:42:47;19.56;58.89
72772;SHT30;60894;42.544;1.516;2023-06-19T09:45:14;19.65;58.95
72772;SHT30;60894;42.544;1.516;2023-06-19T09:47:45;19.86;57.72
72772;SHT30;60894;42.544;1.516;2023-06-19T09:50:13;19.98;55.79
72772;SHT30;60894;42.544;1.516;2023-06-19T09:52:41;20.01;56.85
72772;SHT30;60894;42.544;1.516;2023-06-19T09:55:11;20.25;57.69
72772;SHT30;60894;42.544;1.516;2023-06-19T09:57:40;20.42;57.25
72772;SHT30;60894;42.544;1.516;2023-06-19T10:00:09;20.45;57.67
72772;SHT30;60894;42.544;1.516;2023-06-19T10:02:39;20.44;57.02
72772;SHT30;60894;42.544;1.516;2023-06-19T10:05:06;20.38;55.90
72772;SHT30;60894;42.544;1.516;2023-06-19T10:07:38;20.44;57.51
72772;SHT30;60894;42.544;1.516;2023-06-19T10:10:07;20.67;59.78
72772;SHT30;60894;42.544;1.516;2023-06-19T10:12:38;20.64;56.31
72772;SHT30;60894;42.544;1.516;2023-06-19T10:15:13;20.53;55.58
72772;SHT30;60894;42.544;1.516;2023-06-19T10:17:46;20.49;55.12
72772;SHT30;60894;42.544;1.516;2023-06-19T10:20:22;20.35;56.31
72772;SHT30;60894;42.544;1.516;2023-06-19T10:22:56;20.34;58.43
72772;SHT30;60894;42.544;1.516;2023-06-19T10:25:24;20.30;56.77
72772;SHT30;60894;42.544;1.516;2023-06-19T10:27:52;20.22;55.56
72772;SHT30;60894;42.544;1.516;2023-06-19T10:30:20;20.21;58.46
72772;SHT30;60894;42.544;1.516;2023-06-19T10:32:47;20.24;56.63
72772;SHT30;60894;42.544;1.516;2023-06-19T10:35:16;20.21;52.74
72772;SHT30;60894;42.544;1.516;2023-06-19T10:37:47;20.10;54.06
72772;SHT30;60894;42.544;1.516;2023-06-19T10:40:14;20.00;55.26
72772;SHT30;60894;42.544;1.516;2023-06-19T10:42:42;20.00;51.56
72772;SHT30;60894;42.544;1.516;2023-06-19T10:45:12;20.10;57.02
72772;SHT30;60894;42.544;1.516;2023-06-19T10:47:41;20.49;57.30
72772;SHT30;60894;42.544;1.516;2023-06-19T10:50:12;20.86;55.49
72772;SHT30;60894;42.544;1.516;2023-06-19T10:52:40;21.41;53.37
72772;SHT30;60894;42.544;1.516;2023-06-19T10:55:09;21.68;49.11
72772;SHT30;60894;42.544;1.516;2023-06-19T10:57:36;21.84;46.77
72772;SHT30;60894;42.544;1.516;2023-06-19T11:00:05;21.75;47.72
72772;SHT30;60894;42.544;1.516;2023-06-19T11:02:39;21.82;47.96
72772;SHT30;60894;42.544;1.516;2023-06-19T11:05:08;21.84;47.18
72772;SHT30;60894;42.544;1.516;2023-06-19T11:07:35;22.26;48.06
72772;SHT30;60894;42.544;1.516;2023-06-19T11:10:03;22.41;46.18
72772;SHT30;60894;42.544;1.516;2023-06-19T11:12:31;22.74;46.29
72772;SHT30;60894;42.544;1.516;2023-06-19T11:14:58;23.01;44.89
72772;SHT30;60894;42.544;1.516;2023-06-19T11:17:25;23.15;42.80
72772;SHT30;60894;42.544;1.516;2023-06-19T11:19:56;23.20;43.02
72772;SHT30;60894;42.544;1.516;2023-06-19T11:22:35;23.10;44.06
72772;SHT30;60894;42.544;1.516;2023-06-19T11:25:03;23.18;43.84
72772;SHT30;60894;42.544;1.516;2023-06-19T11:27:30;23.37;42.50
72772;SHT30;60894;42.544;1.516;2023-06-19T11:29:58;23.57;42.70
72772;SHT30;60894;42.544;1.516;2023-06-19T11:32:30;23.61;42.62
72772;SHT30;60894;42.544;1.516;2023-06-19T11:35:04;23.66;41.31
72772;SHT30;60894;42.544;1.516;2023-06-19T11:37:33;23.90;41.40
72772;SHT30;60894;42.544;1.516;2023-06-19T11:40:00;23.90;40.67
72772;SHT30;60894;42.544;1.516;2023-06-19T11:42:29;23.99;41.20
72772;SHT30;60894;42.544;1.516;2023-06-19T11:45:00;23.99;38.89
72772;SHT30;60894;42.544;1.516;2023-06-19T11:47:30;24.36;38.92
72772;SHT30;60894;42.544;1.516;2023-06-19T11:49:56;24.37;38.30
72772;SHT30;60894;42.544;1.516;2023-06-19T11:52:25;24.40;37.76
72772;SHT30;60894;42.544;1.516;2023-06-19T11:54:52;24.53;39.13
72772;SHT30;60894;42.544;1.516;2023-06-19T11:57:19;24.81;38.58
72772;SHT30;60894;42.544;1.516;2023-06-19T11:59:46;24.74;36.69
72772;SHT30;60894;42.544;1.516;2023-06-19T12:02:13;24.36;37.01
72772;SHT30;60894;42.544;1.516;2023-06-19T12:04:40;23.92;37.90
72772;SHT30;60894;42.544;1.516;2023-06-19T12:07:07;23.48;38.66
72772;SHT30;60894;42.544;1.516;2023-06-19T12:09:35;23.30;37.26
72772;SHT30;60894;42.544;1.516;2023-06-19T12:12:03;23.21;37.58
72772;SHT30;60894;42.544;1.516;2023-06-19T12:14:30;22.89;36.80
72772;SHT30;60894;42.544;1.516;2023-06-19T12:16:57;22.60;37.46
72772;SHT30;60894;42.544;1.516;2023-06-19T12:19:25;22.46;38.35
72772;SHT30;60894;42.544;1.516;2023-06-19T12:21:53;22.25;39.28
72772;SHT30;60894;42.544;1.516;2023-06-19T12:24:20;22.15;38.97
72772;SHT30;60894;42.544;1.516;2023-06-19T12:26:49;22.04;39.04
72772;SHT30;60894;42.544;1.516;2023-06-19T12:29:15;21.87;40.58
72772;SHT30;60894;42.544;1.516;2023-06-19T12:31:43;21.57;44.55
72772;SHT30;60894;42.544;1.516;2023-06-19T12:34:10;21.04;45.32
72772;SHT30;60894;42.544;1.516;2023-06-19T12:36:38;20.78;47.91
72772;SHT30;60894;42.544;1.516;2023-06-19T12:39:05;20.53;49.18
72772;SHT30;60894;42.544;1.516;2023-06-19T12:41:40;20.10;49.00
72772;SHT30;60894;42.544;1.516;2023-06-19T12:44:08;19.60;51.33
72772;SHT30;60894;42.544;1.516;2023-06-19T12:46:35;19.26;52.50
72772;SHT30;60894;42.544;1.516;2023-06-19T12:49:02;18.91;53.81
72772;SHT30;60894;42.544;1.516;2023-06-19T12:51:29;18.91;55.98
72772;SHT30;60894;42.544;1.516;2023-06-19T12:53:56;18.77;58.19
72772;SHT30;60894;42.544;1.516;2023-06-19T12:56:23;18.67;62.87
72772;SHT30;60894;42.544;1.516;2023-06-19T12:58:50;18.40;59.40
72772;SHT30;60894;42.544;1.516;2023-06-19T13:01:18;18.29;62.90
72772;SHT30;60894;42.544;1.516;2023-06-19T13:03:45;18.12;65.75
72772;SHT30;60894;42.544;1.516;2023-06-19T13:06:12;18.03;64.77
72772;SHT30;60894;42.544;1.516;2023-06-19T13:08:39;17.83;68.24
72772;SHT30;60894;42.544;1.516;2023-06-19T13:11:06;17.59;70.58
72772;SHT30;60894;42.544;1.516;2023-06-19T13:13:33;17.45;72.62
72772;SHT30;60894;42.544;1.516;2023-06-19T13:16:00;17.71;72.91
72772;SHT30;60894;42.544;1.516;2023-06-19T13:18:28;17.90;73.59
72772;SHT30;60894;42.544;1.516;2023-06-19T13:20:55;18.09;72.82
72772;SHT30;60894;42.544;1.516;2023-06-19T13:23:22;18.06;73.35
72772;SHT30;60894;42.544;1.516;2023-06-19T13:25:49;17.90;73.13
72772;SHT30;60894;42.544;1.516;2023-06-19T13:28:16;17.99;73.84
72772;SHT30;60894;42.544;1.516;2023-06-19T13:30:43;18.02;73.89
72772;SHT30;60894;42.544;1.516;2023-06-19T13:33:09;17.93;73.45
72772;SHT30;60894;42.544;1.516;2023-06-19T13:35:38;18.12;74.25
72772;SHT30;60894;42.544;1.516;2023-06-19T13:38:05;18.02;75.69
72772;SHT30;60894;42.544;1.516;2023-06-19T13:40:33;18.14;73.75
72772;SHT30;60894;42.544;1.516;2023-06-19T13:42:59;17.99;72.13
72772;SHT30;60894;42.544;1.516;2023-06-19T13:45:28;17.92;74.80
72772;SHT30;60894;42.544;1.516;2023-06-19T13:47:56;17.92;75.01
72772;SHT30;60894;42.544;1.516;2023-06-19T13:50:23;17.75;72.95
72772;SHT30;60894;42.544;1.516;2023-06-19T13:52:51;17.41;75.13
72772;SHT30;60894;42.544;1.516;2023-06-19T13:55:19;17.07;74.10
72772;SHT30;60894;42.544;1.516;2023-06-19T13:57:46;17.27;75.46
72772;SHT30;60894;42.544;1.516;2023-06-19T14:00:13;17.47;75.30
72772;SHT30;60894;42.544;1.516;2023-06-19T14:02:41;17.23;73.06
72772;SHT30;60894;42.544;1.516;2023-06-19T14:05:09;17.37;75.08
72772;SHT30;60894;42.544;1.516;2023-06-19T14:07:36;17.27;73.34
72772;SHT30;60894;42.544;1.516;2023-06-19T14:10:05;17.45;76.88
72772;SHT30;60894;42.544;1.516;2023-06-19T14:12:32;17.74;76.67
72772;SHT30;60894;42.544;1.516;2023-06-19T14:14:59;17.88;75.38
72772;SHT30;60894;42.544;1.516;2023-06-19T14:17:26;17.95;75.39
72772;SHT30;60894;42.544;1.516;2023-06-19T14:19:53;17.93;76.00
72772;SHT30;60894;42.544;1.516;2023-06-19T14:22:21;17.65;75.96
72772;SHT30;60894;42.544;1.516;2023-06-19T14:24:48;17.83;75.62
72772;SHT30;60894;42.544;1.516;2023-06-19T14:27:17;17.74;75.05
72772;SHT30;60894;42.544;1.516;2023-06-19T14:29:44;17.68;76.02
72772;SHT30;60894;42.544;1.516;2023-06-19T14:32:11;17.54;77.80
72772;SHT30;60894;42.544;1.516;2023-06-19T14:34:38;17.61;76.92
72772;SHT30;60894;42.544;1.516;2023-06-19T14:37:05;17.45;77.64
72772;SHT30;60894;42.544;1.516;2023-06-19T14:39:31;17.48;78.26
72772;SHT30;60894;42.544;1.516;2023-06-19T14:41:58;17.45;77.48
72772;SHT30;60894;42.544;1.516;2023-06-19T14:44:27;17.55;77.51
72772;SHT30;60894;42.544;1.516;2023-06-19T14:46:53;17.79;77.61
72772;SHT30;60894;42.544;1.516;2023-06-19T14:49:20;17.62;78.31
72772;SHT30;60894;42.544;1.516;2023-06-19T14:51:47;17.78;78.25
72772;SHT30;60894;42.544;1.516;2023-06-19T14:54:14;17.67;77.67
72772;SHT30;60894;42.544;1.516;2023-06-19T14:56:43;17.58;77.12
72772;SHT30;60894;42.544;1.516;2023-06-19T14:59:13;17.50;76.01
72772;SHT30;60894;42.544;1.516;2023-06-19T15:01:42;17.72;75.82
72772;SHT30;60894;42.544;1.516;2023-06-19T15:04:09;17.78;76.68
72772;SHT30;60894;42.544;1.516;2023-06-19T15:06:35;17.75;75.23
72772;SHT30;60894;42.544;1.516;2023-06-19T15:09:03;17.75;76.07
72772;SHT30;60894;42.544;1.516;2023-06-19T15:11:30;17.85;75.64
72772;SHT30;60894;42.544;1.516;2023-06-19T15:13:57;17.86;76.92
72772;SHT30;60894;42.544;1.516;2023-06-19T15:16:24;17.64;77.90
72772;SHT30;60894;42.544;1.516;2023-06-19T15:18:53;17.72;75.72
72772;SHT30;60894;42.544;1.516;2023-06-19T15:21:20;17.61;76.18
72772;SHT30;60894;42.544;1.516;2023-06-19T15:23:47;17.69;77.42
72772;SHT30;60894;42.544;1.516;2023-06-19T15:26:14;17.85;78.63
72772;SHT30;60894;42.544;1.516;2023-06-19T15:28:41;18.14;78.63
72772;SHT30;60894;42.544;1.516;2023-06-19T15:31:09;18.30;77.06
72772;SHT30;60894;42.544;1.516;2023-06-19T15:33:36;18.30;74.68